Time;durP1;ratioP1;P1;durP2;ratioP2;P2;SDS_P1;SDS_P2;PMS_P1;PMS_P2;Temp;Humidity;BMP_temperature;BMP_pressure;BME280_temperature;BME280_humidity;BME280_pressure;Samples;Min_cycle;Max_cycle;Signal;HPM_P1;HPM_P2
2022/07/20 00:00:55;;;;;;;8.35;4.47;;;23.80;99.90;;;;;;4961311;28;20050;-92
2022/07/20 00:03:22;;;;;;;7.20;4.78;;;23.80;99.90;;;;;;4960672;28;20022;-91
2022/07/20 00:05:49;;;;;;;8.43;4.60;;;23.80;99.90;;;;;;4960741;28;20500;-92
2022/07/20 00:11:19;;;;;;;10.57;4.40;;;23.80;99.90;;;;;;4960862;28;20027;-92
2022/07/20 00:11:21;;;;;;;7.25;4.35;;;23.70;99.90;;;;;;4976798;28;20038;-90
2022/07/20 00:14:00;;;;;;;8.13;4.25;;;23.70;99.90;;;;;;4960877;28;20507;-92
2022/07/20 00:16:31;;;;;;;10.45;4.80;;;23.70;99.90;;;;;;4960690;28;20034;-91
2022/07/20 00:19:04;;;;;;;6.38;4.15;;;23.70;99.90;;;;;;4960497;28;20460;-91
2022/07/20 00:21:32;;;;;;;7.80;4.10;;;23.70;99.90;;;;;;4960648;28;20042;-93
2022/07/20 00:23:59;;;;;;;11.02;3.92;;;23.70;99.90;;;;;;4960615;28;20027;-92
2022/07/20 00:26:25;;;;;;;5.53;3.72;;;23.60;99.90;;;;;;4960637;28;20034;-93
2022/07/20 00:28:52;;;;;;;9.32;4.05;;;23.60;99.90;;;;;;4960365;28;20026;-91
2022/07/20 00:31:20;;;;;;;5.82;4.30;;;23.70;99.90;;;;;;4960542;28;20022;-93
2022/07/20 00:33:48;;;;;;;6.63;3.97;;;23.60;99.90;;;;;;4960257;28;20062;-92
2022/07/20 00:36:17;;;;;;;7.28;4.00;;;23.60;99.90;;;;;;4960459;28;20050;-92
2022/07/20 00:38:44;;;;;;;9.05;4.13;;;23.60;99.90;;;;;;4964017;28;20041;-91
2022/07/20 00:41:12;;;;;;;7.18;3.45;;;23.70;99.90;;;;;;4963297;28;20039;-91
2022/07/20 00:44:08;;;;;;;5.43;3.65;;;23.60;99.90;;;;;;4960766;28;20033;-91
2022/07/20 00:46:41;;;;;;;7.50;4.18;;;23.60;99.90;;;;;;4960134;28;20122;-92
2022/07/20 00:49:09;;;;;;;6.15;4.00;;;23.60;99.90;;;;;;4960005;28;20027;-93
2022/07/20 00:51:39;;;;;;;8.98;4.32;;;23.50;99.90;;;;;;4959817;28;20029;-92
2022/07/20 00:54:08;;;;;;;5.70;4.07;;;23.50;99.90;;;;;;4959833;28;20512;-92
2022/07/20 00:56:35;;;;;;;8.57;4.03;;;23.50;99.90;;;;;;4961105;28;20050;-91
2022/07/20 00:59:08;;;;;;;7.25;3.72;;;23.50;99.90;;;;;;4960111;28;20026;-93
2022/07/20 01:01:37;;;;;;;7.57;3.88;;;23.50;99.90;;;;;;4959530;28;20049;-92
2022/07/20 01:04:04;;;;;;;5.63;3.60;;;23.50;99.90;;;;;;4959638;28;20051;-95
2022/07/20 01:06:31;;;;;;;10.88;4.40;;;23.50;99.90;;;;;;4959435;28;20039;-92
2022/07/20 01:08:57;;;;;;;9.02;4.07;;;23.40;99.90;;;;;;4959502;28;20109;-92
2022/07/20 01:11:24;;;;;;;8.57;4.20;;;23.40;99.90;;;;;;4959322;28;20027;-91
2022/07/20 01:13:51;;;;;;;7.43;4.53;;;23.30;99.90;;;;;;4959420;28;20031;-93
2022/07/20 01:16:19;;;;;;;9.23;4.85;;;23.30;99.90;;;;;;4959462;28;20022;-92
2022/07/20 01:18:46;;;;;;;7.63;4.25;;;23.20;99.90;;;;;;4959436;28;20027;-93
2022/07/20 01:21:13;;;;;;;5.85;4.25;;;23.20;99.90;;;;;;4959474;28;20508;-94
2022/07/20 01:23:40;;;;;;;7.15;4.30;;;23.10;99.90;;;;;;4959228;28;20396;-94
2022/07/20 01:26:09;;;;;;;6.97;4.22;;;23.10;99.90;;;;;;4959189;28;20449;-92
2022/07/20 01:28:36;;;;;;;7.25;4.57;;;23.10;99.90;;;;;;4958978;28;20038;-93
2022/07/20 01:31:06;;;;;;;7.00;4.75;;;23.10;99.90;;;;;;4959175;28;20027;-92
2022/07/20 01:33:32;;;;;;;5.75;4.30;;;23.10;99.90;;;;;;4958831;28;20030;-94
2022/07/20 01:35:59;;;;;;;7.75;4.10;;;23.20;99.90;;;;;;4958563;28;20031;-92
2022/07/20 01:38:26;;;;;;;7.68;4.28;;;23.20;99.90;;;;;;4959114;28;20031;-93
2022/07/20 01:40:53;;;;;;;5.88;4.20;;;23.20;99.90;;;;;;4959142;28;20042;-93
2022/07/20 01:43:20;;;;;;;7.22;4.18;;;23.20;99.90;;;;;;4959485;28;20483;-94
2022/07/20 01:45:46;;;;;;;4.95;4.45;;;23.20;99.90;;;;;;4958943;28;20060;-92
2022/07/20 01:48:13;;;;;;;5.57;4.40;;;23.20;99.90;;;;;;4958798;28;20081;-92
2022/07/20 01:50:40;;;;;;;8.55;4.97;;;23.10;99.90;;;;;;4959562;28;20034;-92
2022/07/20 01:53:08;;;;;;;8.70;4.60;;;23.10;99.90;;;;;;4959307;28;20031;-92
2022/07/20 01:55:36;;;;;;;8.10;4.72;;;23.00;99.90;;;;;;4958695;28;20031;-93
2022/07/20 01:58:03;;;;;;;10.70;5.32;;;23.00;99.90;;;;;;4958901;28;20400;-91
2022/07/20 02:00:30;;;;;;;8.15;4.88;;;22.90;99.90;;;;;;4958748;28;20449;-93
2022/07/20 02:02:56;;;;;;;11.07;5.28;;;22.90;99.90;;;;;;4958671;28;20053;-92
2022/07/20 02:05:23;;;;;;;8.38;4.85;;;22.90;99.90;;;;;;4958283;28;20061;-92
2022/07/20 02:07:50;;;;;;;9.10;5.25;;;22.90;99.90;;;;;;4958798;28;20045;-93
2022/07/20 02:10:17;;;;;;;8.45;4.75;;;22.90;99.90;;;;;;4958503;28;20039;-92
2022/07/20 02:12:43;;;;;;;9.85;5.00;;;22.90;99.90;;;;;;4958989;28;20027;-92
2022/07/20 02:16:14;;;;;;;7.53;4.57;;;22.90;99.90;;;;;;4958549;28;20038;-92
2022/07/20 02:18:04;;;;;;;6.95;4.78;;;22.90;99.90;;;;;;4974436;28;20041;-92
2022/07/20 02:20:31;;;;;;;8.38;5.25;;;23.00;99.90;;;;;;4958616;28;20042;-92
2022/07/20 02:22:57;;;;;;;8.10;4.78;;;22.90;99.90;;;;;;4958400;28;20074;-92
2022/07/20 02:25:24;;;;;;;6.18;5.13;;;22.90;99.90;;;;;;4960569;28;20038;-91
2022/07/20 02:27:51;;;;;;;8.48;5.10;;;22.80;99.90;;;;;;4958658;28;20026;-92
2022/07/20 02:30:18;;;;;;;9.07;5.13;;;22.80;99.90;;;;;;4959267;28;20109;-92
2022/07/20 02:32:44;;;;;;;6.45;4.72;;;22.70;99.90;;;;;;4958248;28;20132;-92
2022/07/20 02:35:11;;;;;;;11.30;5.63;;;22.70;99.90;;;;;;4958280;28;20031;-91
2022/07/20 02:37:38;;;;;;;8.90;5.75;;;22.70;99.90;;;;;;4958369;28;20027;-91
2022/07/20 02:40:06;;;;;;;7.97;5.35;;;22.60;99.90;;;;;;4958106;28;20395;-92
2022/07/20 02:42:33;;;;;;;7.85;5.78;;;22.60;99.90;;;;;;4958178;28;20113;-91
2022/07/20 02:44:59;;;;;;;9.48;5.65;;;22.60;99.90;;;;;;4958174;28;20496;-92
2022/07/20 02:47:26;;;;;;;8.68;5.72;;;22.60;99.90;;;;;;4958189;28;20039;-91
2022/07/20 02:49:53;;;;;;;10.30;5.95;;;22.60;99.90;;;;;;4962633;28;20030;-92
2022/07/20 02:52:20;;;;;;;7.78;5.88;;;22.60;99.90;;;;;;4962729;28;20546;-92
2022/07/20 02:54:46;;;;;;;7.15;5.43;;;22.60;99.90;;;;;;4962196;28;20031;-91
2022/07/20 02:57:13;;;;;;;10.02;6.07;;;22.70;99.90;;;;;;4962088;28;20023;-92
2022/07/20 02:59:40;;;;;;;7.18;5.28;;;22.70;99.90;;;;;;4961618;28;20031;-91
2022/07/20 03:02:06;;;;;;;10.00;6.07;;;22.70;99.90;;;;;;4963447;28;20078;-92
2022/07/20 03:04:36;;;;;;;9.20;6.35;;;22.80;99.90;;;;;;4962273;28;20125;-92
2022/07/20 03:07:03;;;;;;;9.82;5.72;;;22.80;99.90;;;;;;4962074;28;20404;-94
2022/07/20 03:09:29;;;;;;;9.50;5.95;;;22.90;99.90;;;;;;4962014;28;20563;-91
2022/07/20 03:11:56;;;;;;;9.82;6.53;;;22.90;99.90;;;;;;4961817;28;20031;-91
2022/07/20 03:14:23;;;;;;;10.43;5.53;;;22.90;99.90;;;;;;4962193;28;20422;-92
2022/07/20 03:16:51;;;;;;;7.82;5.82;;;22.90;99.90;;;;;;4961506;28;20078;-92
2022/07/20 03:19:18;;;;;;;8.88;5.53;;;22.90;99.90;;;;;;4961521;28;20027;-92
2022/07/20 03:21:51;;;;;;;7.85;6.03;;;22.90;99.90;;;;;;4961494;28;20177;-94
2022/07/20 03:24:18;;;;;;;11.25;6.82;;;22.90;99.90;;;;;;4969745;28;20033;-92
2022/07/20 03:26:45;;;;;;;11.43;6.45;;;22.90;99.90;;;;;;4961462;28;20034;-91
2022/07/20 03:29:11;;;;;;;14.50;6.68;;;22.90;99.90;;;;;;4961619;28;20022;-92
2022/07/20 03:31:37;;;;;;;9.70;6.43;;;22.90;99.90;;;;;;4961391;28;20026;-91
2022/07/20 03:34:07;;;;;;;13.07;7.35;;;22.90;99.90;;;;;;4961305;28;20034;-92
2022/07/20 03:36:34;;;;;;;7.85;7.05;;;22.90;99.90;;;;;;4961549;28;20033;-94
2022/07/20 03:39:00;;;;;;;10.48;7.65;;;22.90;99.90;;;;;;4961286;28;20499;-91
2022/07/20 03:41:30;;;;;;;12.27;7.75;;;23.00;99.90;;;;;;4961112;28;20046;-92
2022/07/20 03:43:57;;;;;;;13.23;9.00;;;22.90;99.90;;;;;;4961130;28;20539;-93
2022/07/20 03:46:23;;;;;;;13.27;8.13;;;22.90;99.90;;;;;;4961081;28;20511;-92
2022/07/20 03:48:50;;;;;;;12.38;8.18;;;22.90;99.90;;;;;;4961054;28;20038;-93
2022/07/20 03:51:20;;;;;;;8.32;7.10;;;23.00;99.90;;;;;;4960885;28;20099;-94
2022/07/20 03:53:47;;;;;;;12.20;7.97;;;23.00;99.90;;;;;;4960886;28;20476;-91
2022/07/20 03:56:13;;;;;;;12.82;7.93;;;23.00;99.90;;;;;;4960866;28;20031;-92
2022/07/20 03:58:40;;;;;;;12.23;7.93;;;23.00;99.90;;;;;;4962058;28;20075;-92
2022/07/20 04:01:07;;;;;;;10.65;8.40;;;23.00;99.90;;;;;;4960936;28;20062;-91
2022/07/20 04:03:33;;;;;;;12.75;7.97;;;23.10;99.90;;;;;;4960562;28;20468;-91
2022/07/20 04:06:02;;;;;;;16.17;8.48;;;23.10;99.90;;;;;;4961156;28;20043;-91
2022/07/20 04:08:29;;;;;;;12.80;7.97;;;23.10;99.90;;;;;;4960868;28;20034;-91
2022/07/20 04:10:56;;;;;;;12.07;8.02;;;23.20;99.90;;;;;;4960903;28;20035;-91
2022/07/20 04:13:23;;;;;;;10.95;7.68;;;23.10;99.90;;;;;;4960252;28;20059;-93
2022/07/20 04:15:49;;;;;;;13.73;7.85;;;23.20;99.90;;;;;;4960491;28;20488;-92
2022/07/20 04:18:17;;;;;;;10.10;7.00;;;23.20;99.90;;;;;;4960656;28;20030;-92
2022/07/20 04:20:44;;;;;;;12.05;7.80;;;23.10;99.90;;;;;;4960472;28;20046;-91
2022/07/20 04:23:13;;;;;;;10.73;7.85;;;23.00;99.90;;;;;;4960410;28;20031;-92
2022/07/20 04:25:40;;;;;;;17.70;7.65;;;23.00;99.90;;;;;;4960439;28;20563;-92
2022/07/20 04:28:06;;;;;;;10.10;7.30;;;23.00;99.90;;;;;;4960306;28;20030;-92
2022/07/20 04:30:35;;;;;;;9.60;7.53;;;23.00;99.90;;;;;;4960256;28;20042;-93
2022/07/20 04:33:02;;;;;;;12.57;7.18;;;23.10;99.90;;;;;;4960247;28;20169;-92
2022/07/20 04:35:29;;;;;;;14.05;7.72;;;23.10;99.90;;;;;;4960301;28;20030;-93
2022/07/20 04:37:56;;;;;;;11.20;6.95;;;23.30;99.90;;;;;;4960311;28;20026;-92
2022/07/20 04:40:23;;;;;;;10.50;7.38;;;23.30;99.90;;;;;;4959916;28;20053;-94
2022/07/20 04:42:49;;;;;;;13.98;7.50;;;23.40;99.90;;;;;;4960018;28;20409;-93
2022/07/20 04:45:20;;;;;;;9.13;7.30;;;23.60;99.90;;;;;;4960090;28;20054;-92
2022/07/20 04:47:50;;;;;;;13.05;6.03;;;24.00;99.90;;;;;;4961738;28;20027;-93
2022/07/20 04:50:16;;;;;;;16.58;6.65;;;24.90;99.90;;;;;;4961026;28;20394;-93
2022/07/20 04:52:43;;;;;;;11.80;5.78;;;26.10;99.90;;;;;;4959893;28;20030;-92
2022/07/20 04:55:10;;;;;;;8.38;5.03;;;26.90;99.90;;;;;;4959895;28;20069;-91
2022/07/20 04:57:37;;;;;;;8.98;6.03;;;27.70;99.90;;;;;;4959797;28;20027;-92
2022/07/20 05:00:06;;;;;;;11.27;6.05;;;28.10;99.90;;;;;;4960291;28;20121;-93
2022/07/20 05:02:33;;;;;;;11.52;6.05;;;28.30;99.90;;;;;;4959891;28;20029;-94
2022/07/20 05:04:59;;;;;;;13.07;6.15;;;27.90;99.90;;;;;;4960041;28;20054;-93
2022/07/20 05:07:29;;;;;;;9.57;5.82;;;28.30;99.90;;;;;;4959773;28;20035;-92
2022/07/20 05:09:56;;;;;;;6.90;5.32;;;28.50;99.90;;;;;;4962910;28;20071;-92
2022/07/20 05:12:22;;;;;;;10.13;5.40;;;29.00;99.90;;;;;;4962304;28;20031;-93
2022/07/20 05:14:49;;;;;;;11.30;5.45;;;29.40;99.90;;;;;;4959546;28;20034;-94
2022/07/20 05:17:15;;;;;;;8.13;5.07;;;29.40;99.90;;;;;;4959525;28;20066;-94
2022/07/20 05:19:42;;;;;;;17.52;5.60;;;29.30;99.90;;;;;;4959392;28;20027;-93
2022/07/20 05:22:09;;;;;;;8.18;4.90;;;29.80;99.90;;;;;;4959617;28;20030;-92
2022/07/20 05:24:36;;;;;;;9.02;5.22;;;30.40;99.90;;;;;;4959649;28;20030;-92
2022/07/20 05:27:03;;;;;;;11.55;5.40;;;30.70;99.90;;;;;;4959166;28;20034;-94
2022/07/20 05:29:29;;;;;;;8.85;4.97;;;31.40;99.90;;;;;;4959185;28;20101;-93
2022/07/20 05:31:56;;;;;;;12.73;5.40;;;31.80;99.90;;;;;;4962225;28;20027;-93
2022/07/20 05:34:23;;;;;;;8.25;5.30;;;31.60;99.90;;;;;;4960960;28;20035;-93
2022/07/20 05:36:51;;;;;;;7.05;4.10;;;30.90;99.90;;;;;;4959606;28;20027;-94
2022/07/20 05:39:27;;;;;;;11.70;4.85;;;30.80;99.90;;;;;;4959200;28;20042;-93
2022/07/20 05:41:54;;;;;;;11.65;5.93;;;30.90;99.90;;;;;;4959630;28;20081;-93
2022/07/20 05:44:21;;;;;;;6.65;4.50;;;31.60;99.90;;;;;;4959176;28;20447;-95
2022/07/20 05:46:47;;;;;;;7.00;4.65;;;31.70;99.90;;;;;;4959492;28;20026;-94
2022/07/20 05:49:14;;;;;;;10.45;4.72;;;31.70;99.90;;;;;;4958873;28;20023;-93
2022/07/20 05:51:41;;;;;;;8.48;4.80;;;31.70;99.90;;;;;;4958923;28;20031;-93
2022/07/20 05:54:08;;;;;;;4.80;4.07;;;31.90;99.90;;;;;;4958785;28;20392;-94
2022/07/20 05:56:34;;;;;;;7.85;3.95;;;31.90;99.90;;;;;;4959027;28;20083;-93
2022/07/20 05:59:01;;;;;;;5.03;4.22;;;31.90;99.90;;;;;;4956902;28;20023;-94
2022/07/20 06:01:31;;;;;;;8.25;3.70;;;31.80;99.90;;;;;;4958801;28;20114;-93
2022/07/20 06:03:58;;;;;;;9.27;4.15;;;31.40;99.90;;;;;;4958553;28;20038;-93
2022/07/20 06:06:26;;;;;;;8.35;4.32;;;31.30;99.90;;;;;;4958835;28;20042;-93
2022/07/20 06:08:52;;;;;;;8.30;4.03;;;31.90;99.90;;;;;;4958856;28;20027;-93
2022/07/20 06:11:19;;;;;;;9.98;4.72;;;32.10;99.90;;;;;;4958920;28;20018;-93
2022/07/20 06:13:45;;;;;;;5.57;3.50;;;32.40;99.90;;;;;;4958887;28;20125;-94
2022/07/20 06:16:12;;;;;;;7.88;4.43;;;32.40;99.90;;;;;;4958819;28;20019;-94
2022/07/20 06:18:39;;;;;;;7.32;4.18;;;31.80;99.90;;;;;;4958729;28;20058;-94
2022/07/20 06:21:06;;;;;;;5.15;4.63;;;31.60;99.90;;;;;;4958363;28;20035;-95
2022/07/20 06:23:33;;;;;;;8.85;3.95;;;31.40;99.90;;;;;;4958123;28;20041;-94
2022/07/20 06:26:02;;;;;;;6.97;3.65;;;31.60;99.90;;;;;;4958445;28;20598;-93
2022/07/20 06:28:35;;;;;;;11.00;3.88;;;31.60;99.90;;;;;;4958326;28;20035;-95
2022/07/20 06:31:03;;;;;;;9.07;3.97;;;31.70;99.90;;;;;;4958750;28;20066;-94
2022/07/20 06:33:45;;;;;;;6.15;3.47;;;31.60;99.90;;;;;;4961612;28;20308;-95
2022/07/20 06:36:16;;;;;;;5.85;3.85;;;32.10;99.90;;;;;;4958424;28;20484;-93
2022/07/20 06:38:43;;;;;;;6.95;3.60;;;32.70;99.90;;;;;;4958051;29;20027;-94
2022/07/20 06:41:09;;;;;;;7.35;3.30;;;32.70;99.90;;;;;;4944165;28;20031;-92
2022/07/20 06:43:37;;;;;;;5.30;3.10;;;32.80;99.90;;;;;;4975030;28;20113;-93
2022/07/20 06:46:04;;;;;;;8.15;3.92;;;33.00;99.90;;;;;;4940917;29;20031;-93
2022/07/20 06:48:36;;;;;;;5.15;3.10;;;33.30;99.90;;;;;;4971268;28;20023;-94
2022/07/20 06:51:14;;;;;;;;;;;33.00;99.90;;;;;;4961683;28;20031;-93
2022/07/20 06:53:41;;;;;;;7.00;3.58;;;33.40;99.90;;;;;;4945941;29;19915;-95
2022/07/20 06:56:08;;;;;;;6.07;3.33;;;33.20;99.90;;;;;;4941663;29;20035;-93
2022/07/20 06:58:34;;;;;;;4.63;3.05;;;33.10;99.90;;;;;;4956631;28;20031;-91
2022/07/20 07:01:01;;;;;;;6.75;3.60;;;33.10;99.90;;;;;;4967910;28;20035;-92
2022/07/20 07:03:28;;;;;;;5.40;3.90;;;33.00;99.90;;;;;;4974907;28;20035;-95
2022/07/20 07:08:56;;;;;;;4.20;3.80;;;33.80;99.90;;;;;;4971191;28;20047;-94
2022/07/20 07:11:28;;;;;;;6.22;3.40;;;33.80;99.90;;;;;;4961385;28;20027;-92
2022/07/20 07:14:20;;;;;;;6.75;4.10;;;33.40;99.90;;;;;;4950086;28;20419;-93
2022/07/20 07:16:55;;;;;;;11.95;4.72;;;33.50;99.90;;;;;;4970663;28;20031;-94
2022/07/20 07:20:17;;;;;;;9.90;3.75;;;33.80;99.90;;;;;;4984943;28;20023;-93
2022/07/20 07:38:50;;;;;;;8.88;3.90;;;34.70;99.90;;;;;;4979975;28;20047;-93
2022/07/20 07:41:29;;;;;;;6.18;5.57;;;34.60;99.90;;;;;;4964751;28;20039;-94
2022/07/20 07:47:26;;;;;;;7.10;6.32;;;35.60;99.90;;;;;;4878280;29;20103;-93
2022/07/20 07:50:14;;;;;;;7.07;6.40;;;35.60;99.90;;;;;;4867103;29;20037;-95
2022/07/20 07:52:45;;;;;;;;;;;35.40;99.90;;;;;;4885757;29;20041;-94
2022/07/20 07:55:12;;;;;;;6.95;6.50;;;35.00;99.90;;;;;;4852975;29;20441;-94
2022/07/20 07:58:03;;;;;;;8.73;7.85;;;34.60;99.90;;;;;;4869434;29;20065;-95
2022/07/20 08:01:29;;;;;;;;;;;;;;;;;;;;;
2022/07/20 08:04:40;;;;;;;10.15;6.30;;;34.50;99.90;;;;;;4824774;29;20527;-93
2022/07/20 08:07:14;;;;;;;6.00;5.50;;;35.20;99.90;;;;;;4815020;29;20428;-94
2022/07/20 08:09:41;;;;;;;7.93;6.22;;;35.20;99.90;;;;;;4814218;29;20045;-95
2022/07/20 08:12:42;;;;;;;12.18;6.72;;;34.70;99.90;;;;;;4818836;29;20044;-93
2022/07/20 08:15:41;;;;;;;10.30;5.43;;;35.20;99.90;;;;;;4776041;30;20043;-94
2022/07/20 08:18:26;;;;;;;5.40;5.00;;;35.10;99.90;;;;;;4772215;30;20078;-93
2022/07/20 08:20:53;;;;;;;5.82;5.40;;;35.20;99.90;;;;;;4771666;30;20047;-94
2022/07/20 08:23:20;;;;;;;6.85;5.85;;;35.20;99.90;;;;;;4786889;29;20156;-94
2022/07/20 08:25:47;;;;;;;6.60;6.10;;;34.70;99.90;;;;;;4828780;29;20072;-94
2022/07/20 08:28:17;;;;;;;8.95;7.32;;;35.00;99.90;;;;;;4843882;29;20022;-93
2022/07/20 08:30:48;;;;;;;8.90;7.85;;;35.20;99.90;;;;;;4844187;29;20034;-94
2022/07/20 08:33:14;;;;;;;8.75;8.13;;;35.90;99.90;;;;;;4844525;29;20042;-93
2022/07/20 08:35:44;;;;;;;7.32;6.72;;;36.30;99.90;;;;;;4845473;29;20033;-95
2022/07/20 08:38:17;;;;;;;7.32;6.68;;;35.80;99.90;;;;;;4845283;29;20058;-94
2022/07/20 08:40:44;;;;;;;12.60;6.80;;;35.30;99.90;;;;;;4829864;29;20045;-94
2022/07/20 08:43:14;;;;;;;10.57;6.65;;;35.00;99.90;;;;;;4846215;29;20026;-94
2022/07/20 08:45:44;;;;;;;6.97;6.47;;;35.20;99.90;;;;;;4845752;29;20075;-95
2022/07/20 08:48:12;;;;;;;7.30;6.55;;;35.10;99.90;;;;;;4849151;29;20025;-94
2022/07/20 08:50:45;;;;;;;8.02;6.57;;;34.70;99.90;;;;;;4856562;29;20031;-92
2022/07/20 08:53:12;;;;;;;6.97;6.47;;;34.60;99.90;;;;;;4909941;29;20033;-94
2022/07/20 08:55:39;;;;;;;7.60;6.90;;;35.20;99.90;;;;;;4884793;29;20063;-95
2022/07/20 08:58:06;;;;;;;7.00;6.50;;;35.10;99.90;;;;;;4899572;29;20513;-93
2022/07/20 09:00:35;;;;;;;8.30;7.70;;;34.90;99.90;;;;;;4884269;29;20032;-94
2022/07/20 09:03:04;;;;;;;7.97;7.30;;;34.90;99.90;;;;;;4903035;29;20047;-93
2022/07/20 09:05:34;;;;;;;8.80;8.18;;;35.40;99.90;;;;;;4912287;29;20035;-94
2022/07/20 09:08:02;;;;;;;10.23;8.48;;;35.40;99.90;;;;;;4941817;29;20035;-94
2022/07/20 09:10:36;;;;;;;9.50;8.70;;;35.10;99.90;;;;;;4941470;29;20035;-94
2022/07/20 09:13:17;;;;;;;8.75;8.15;;;35.20;99.90;;;;;;4941094;29;20035;-93
2022/07/20 09:15:47;;;;;;;9.13;8.32;;;35.40;99.90;;;;;;4942303;29;20387;-94
2022/07/20 09:18:28;;;;;;;9.80;9.00;;;35.40;99.90;;;;;;4957001;29;20070;-93
2022/07/20 09:21:00;;;;;;;10.05;9.45;;;35.10;99.90;;;;;;4952855;29;20070;-93
2022/07/20 09:23:31;;;;;;;10.10;9.20;;;35.40;99.90;;;;;;4948877;29;20050;-94
2022/07/20 09:26:27;;;;;;;10.98;9.82;;;34.80;99.90;;;;;;4944723;29;20063;-94
2022/07/20 09:28:57;;;;;;;10.32;9.48;;;34.40;99.90;;;;;;4938468;29;20134;-94
2022/07/20 09:31:38;;;;;;;9.13;8.50;;;34.80;99.90;;;;;;4940356;29;20067;-94
2022/07/20 09:34:23;;;;;;;9.48;8.93;;;34.70;99.90;;;;;;4940227;29;20023;-93
2022/07/20 09:36:53;;;;;;;10.52;9.73;;;35.00;99.90;;;;;;4940317;29;20043;-93
2022/07/20 09:39:22;;;;;;;11.13;10.10;;;35.00;99.90;;;;;;4941138;29;20031;-93
2022/07/20 09:41:57;;;;;;;11.00;10.10;;;35.20;99.90;;;;;;4940425;28;20043;-93
2022/07/20 09:44:27;;;;;;;10.95;9.88;;;34.90;99.90;;;;;;4944427;29;20062;-93
2022/07/20 09:46:54;;;;;;;9.90;9.15;;;34.60;99.90;;;;;;4957653;29;20497;-94
2022/07/20 09:49:30;;;;;;;9.52;8.80;;;34.40;99.90;;;;;;4939994;29;20031;-93
2022/07/20 09:52:03;;;;;;;10.95;9.82;;;34.60;99.90;;;;;;4940081;29;20122;-93
2022/07/20 09:54:39;;;;;;;11.07;10.30;;;34.90;99.90;;;;;;4940385;29;20397;-92
2022/07/20 09:57:06;;;;;;;10.18;9.35;;;35.00;99.90;;;;;;4939791;29;20031;-94
2022/07/20 09:59:47;;;;;;;10.27;9.38;;;34.70;99.90;;;;;;4939698;29;20404;-93
2022/07/20 10:02:14;;;;;;;10.10;9.30;;;34.30;99.90;;;;;;4939592;29;20114;-93
2022/07/20 10:04:41;;;;;;;9.80;9.10;;;34.00;99.90;;;;;;4940196;29;20027;-94
2022/07/20 10:07:08;;;;;;;9.85;9.25;;;34.00;99.90;;;;;;4939618;29;20039;-93
2022/07/20 10:09:35;;;;;;;10.32;9.63;;;33.70;99.90;;;;;;4939397;29;20019;-93
2022/07/20 10:12:02;;;;;;;10.60;9.95;;;33.90;99.90;;;;;;4939386;29;20038;-93
2022/07/20 10:14:31;;;;;;;11.40;10.20;;;34.20;99.90;;;;;;4939895;29;20126;-92
2022/07/20 10:17:00;;;;;;;11.02;10.10;;;33.80;99.90;;;;;;4939674;29;20059;-94
2022/07/20 10:19:47;;;;;;;11.32;10.40;;;33.70;99.90;;;;;;4939157;29;20031;-93
2022/07/20 10:22:14;;;;;;;10.18;9.45;;;34.40;99.90;;;;;;4939172;29;20511;-94
2022/07/20 10:24:44;;;;;;;9.80;9.10;;;34.50;99.90;;;;;;4924231;29;20055;-94
2022/07/20 10:27:13;;;;;;;10.00;9.05;;;34.10;99.90;;;;;;4939373;29;20061;-93
2022/07/20 10:29:49;;;;;;;9.80;9.10;;;33.60;99.90;;;;;;4941413;29;20031;-95
2022/07/20 10:32:23;;;;;;;10.80;9.90;;;34.10;99.90;;;;;;4941470;29;20039;-94
2022/07/20 10:34:54;;;;;;;;;;;34.20;99.90;;;;;;4939895;29;20027;-93
2022/07/20 10:37:41;;;;;;;9.95;9.15;;;34.00;99.90;;;;;;4939177;29;20300;-93
2022/07/20 10:40:17;;;;;;;9.57;8.88;;;33.90;99.90;;;;;;4939713;29;20040;-93
2022/07/20 10:42:48;;;;;;;10.52;9.52;;;33.70;99.90;;;;;;4939467;29;20576;-93
2022/07/20 10:48:16;;;;;;;11.25;10.40;;;33.50;99.90;;;;;;4955078;29;20063;-93
2022/07/20 10:50:51;;;;;;;10.77;10.07;;;33.40;99.90;;;;;;4939725;29;20031;-94
2022/07/20 10:53:18;;;;;;;11.43;10.73;;;33.50;99.90;;;;;;4938921;29;20027;-93
2022/07/20 10:55:44;;;;;;;11.48;10.82;;;33.80;99.90;;;;;;4939088;29;20465;-93
2022/07/20 10:58:15;;;;;;;12.35;11.55;;;33.70;99.90;;;;;;4939045;29;20440;-93
2022/07/20 11:00:52;;;;;;;11.63;10.85;;;33.70;99.90;;;;;;4938764;29;20039;-92
2022/07/20 11:03:29;;;;;;;12.00;11.30;;;33.60;99.90;;;;;;4938824;29;20146;-93
2022/07/20 11:06:21;;;;;;;12.68;11.75;;;33.70;99.90;;;;;;4938725;29;20039;-93
2022/07/20 11:08:57;;;;;;;12.80;11.77;;;33.70;99.90;;;;;;4939393;29;20027;-94
2022/07/20 11:11:47;;;;;;;12.65;11.80;;;33.90;99.90;;;;;;4943409;29;20032;-93
2022/07/20 11:14:26;;;;;;;12.65;11.90;;;34.20;99.90;;;;;;4852402;29;20140;-92
2022/07/20 11:16:55;;;;;;;12.40;11.65;;;34.20;99.90;;;;;;4866854;29;20101;-91
2022/07/20 11:19:23;;;;;;;12.68;11.88;;;33.90;99.90;;;;;;4867143;29;20081;-91
2022/07/20 11:21:49;;;;;;;13.60;12.38;;;33.80;99.90;;;;;;4866805;29;20135;-91
2022/07/20 11:24:24;;;;;;;13.15;12.20;;;33.70;99.90;;;;;;4867666;29;20025;-92
2022/07/20 11:26:51;;;;;;;13.38;12.38;;;33.50;99.90;;;;;;4866655;29;20033;-93
2022/07/20 11:29:18;;;;;;;13.27;12.27;;;33.40;99.90;;;;;;4866802;29;20028;-91
2022/07/20 11:31:44;;;;;;;13.20;12.00;;;33.50;99.90;;;;;;4866679;29;20045;-91
2022/07/20 11:34:14;;;;;;;12.88;12.18;;;33.40;99.90;;;;;;4868316;29;20040;-93
2022/07/20 11:36:41;;;;;;;13.85;12.85;;;33.60;99.90;;;;;;4868586;29;20665;-91
2022/07/20 11:39:10;;;;;;;13.52;12.57;;;33.60;99.90;;;;;;4868248;29;20105;-93
2022/07/20 11:41:39;;;;;;;13.48;12.55;;;33.70;99.90;;;;;;4869052;29;20045;-92
2022/07/20 11:44:16;;;;;;;13.50;12.70;;;33.40;99.90;;;;;;4875654;29;20037;-91
2022/07/20 11:46:44;;;;;;;13.85;13.05;;;33.40;99.90;;;;;;4879140;29;20044;-91
2022/07/20 11:49:14;;;;;;;13.10;12.30;;;33.50;99.90;;;;;;4881970;29;20701;-92
2022/07/20 11:51:43;;;;;;;13.68;12.82;;;33.50;99.90;;;;;;4927408;28;20035;-92
2022/07/20 11:54:10;;;;;;;14.20;13.10;;;33.60;99.90;;;;;;4949961;29;20063;-93
2022/07/20 11:56:38;;;;;;;13.90;13.00;;;33.90;99.90;;;;;;4949248;29;20416;-94
2022/07/20 11:59:08;;;;;;;14.50;13.50;;;33.80;99.90;;;;;;4951345;29;20114;-93
2022/07/20 12:01:54;;;;;;;14.10;13.10;;;33.60;99.90;;;;;;4947518;28;20075;-93
2022/07/20 12:04:21;;;;;;;14.20;13.20;;;33.20;99.90;;;;;;4949868;29;20042;-93
2022/07/20 12:06:58;;;;;;;13.98;13.13;;;33.40;99.90;;;;;;4946626;29;20023;-93
2022/07/20 12:09:43;;;;;;;13.85;12.90;;;33.20;99.90;;;;;;4942678;29;20035;-93
2022/07/20 12:12:44;;;;;;;14.52;13.63;;;33.50;99.90;;;;;;4963662;28;20035;-93
2022/07/20 12:14:57;;;;;;;14.50;13.65;;;33.60;99.90;;;;;;4959601;29;20082;-93
2022/07/20 12:17:27;;;;;;;15.65;14.10;;;33.70;99.90;;;;;;4941866;29;20085;-93
2022/07/20 12:19:56;;;;;;;14.38;13.38;;;33.80;99.90;;;;;;4941723;29;20477;-93
2022/07/20 12:22:27;;;;;;;14.02;13.23;;;33.70;99.90;;;;;;4941558;29;20043;-93
2022/07/20 12:24:59;;;;;;;13.80;12.90;;;33.30;99.90;;;;;;4943741;29;20027;-92
2022/07/20 12:27:30;;;;;;;13.65;12.52;;;33.30;99.90;;;;;;4943810;29;20044;-93
2022/07/20 12:29:58;;;;;;;14.20;13.30;;;33.30;99.90;;;;;;4942899;29;20043;-93
2022/07/20 12:32:31;;;;;;;13.77;12.85;;;33.40;99.70;;;;;;4943740;29;20023;-92
2022/07/20 12:34:59;;;;;;;14.07;13.27;;;33.30;99.90;;;;;;4945607;29;20031;-92
2022/07/20 12:37:55;;;;;;;14.98;13.95;;;33.60;99.90;;;;;;4944436;29;20059;-92
2022/07/20 12:40:46;;;;;;;14.93;13.95;;;33.60;99.90;;;;;;4944887;29;20047;-92
2022/07/20 12:43:31;;;;;;;14.57;13.68;;;33.30;99.70;;;;;;4944393;28;20047;-92
2022/07/20 12:46:05;;;;;;;14.02;13.13;;;33.30;99.90;;;;;;4944697;29;20046;-93
2022/07/20 12:48:35;;;;;;;14.07;13.07;;;33.40;99.90;;;;;;4943846;29;20031;-92
2022/07/20 12:51:20;;;;;;;14.32;13.27;;;33.50;99.20;;;;;;4945264;29;20023;-92
2022/07/20 12:53:51;;;;;;;14.10;13.15;;;33.40;99.90;;;;;;4945477;29;20500;-93
2022/07/20 12:56:17;;;;;;;13.80;12.85;;;33.30;99.90;;;;;;4947495;29;20035;-93
2022/07/20 12:58:44;;;;;;;13.70;12.80;;;33.30;99.90;;;;;;4947045;29;20031;-92
2022/07/20 13:01:12;;;;;;;13.77;12.80;;;33.20;99.90;;;;;;4950147;29;20047;-92
2022/07/20 13:03:42;;;;;;;12.80;12.10;;;33.30;99.90;;;;;;4950342;29;20063;-92
2022/07/20 13:06:09;;;;;;;14.30;13.25;;;33.40;99.90;;;;;;4950056;29;20035;-92
2022/07/20 13:08:35;;;;;;;13.82;13.10;;;33.50;99.90;;;;;;4947870;29;20070;-93
2022/07/20 13:11:04;;;;;;;14.13;12.82;;;33.20;99.90;;;;;;4951214;29;20049;-92
2022/07/20 13:13:34;;;;;;;13.80;12.80;;;33.40;99.90;;;;;;4948172;29;20031;-92
2022/07/20 13:16:04;;;;;;;13.73;12.73;;;33.20;99.90;;;;;;4943148;29;20039;-91
2022/07/20 13:18:31;;;;;;;14.10;13.23;;;32.80;99.90;;;;;;4946941;29;20078;-92
2022/07/20 13:20:58;;;;;;;13.65;12.90;;;32.80;99.90;;;;;;4945199;29;20035;-94
2022/07/20 13:23:24;;;;;;;13.55;12.65;;;32.90;99.90;;;;;;4946612;29;20023;-92